Time;durP1;ratioP1;P1;durP2;ratioP2;P2;SDS_P1;SDS_P2;PMS_P1;PMS_P2;Temp;Humidity;BMP_temperature;BMP_pressure;BME280_temperature;BME280_humidity;BME280_pressure;Samples;Min_cycle;Max_cycle;Signal;HPM_P1;HPM_P2
2021/12/25 00:01:41;;;;;;;41.70;29.13;;;;;;;;;;5072129;28;20056;-78
2021/12/25 00:04:08;;;;;;;52.63;34.28;;;;;;;;;;5074381;28;20055;-78
2021/12/25 00:06:35;;;;;;;54.45;33.33;;;;;;;;;;5073966;28;20024;-78
2021/12/25 00:09:01;;;;;;;54.97;34.70;;;;;;;;;;5065754;28;20036;-78
2021/12/25 00:11:27;;;;;;;62.53;38.30;;;;;;;;;;5054947;28;20028;-79
2021/12/25 00:13:53;;;;;;;47.60;30.80;;;;;;;;;;5055463;28;20051;-79
2021/12/25 00:16:19;;;;;;;44.70;31.13;;;;;;;;;;5060683;28;20028;-79
2021/12/25 00:18:45;;;;;;;40.58;28.77;;;;;;;;;;5073931;28;20025;-79
2021/12/25 00:21:11;;;;;;;39.67;26.80;;;;;;;;;;5073544;28;20029;-79
2021/12/25 00:23:38;;;;;;;41.63;26.50;;;;;;;;;;5073642;28;20131;-79
2021/12/25 00:26:24;;;;;;;45.80;30.65;;;;;;;;;;5073618;28;20025;-79
2021/12/25 00:29:02;;;;;;;43.17;30.02;;;;;;;;;;5074559;28;20020;-78
2021/12/25 00:31:47;;;;;;;36.42;24.17;;;;;;;;;;5074145;28;20020;-78
2021/12/25 00:34:15;;;;;;;34.58;22.13;;;;;;;;;;5058489;28;20040;-78
2021/12/25 00:36:41;;;;;;;39.58;26.67;;;;;;;;;;5073152;28;20413;-78
2021/12/25 00:39:07;;;;;;;40.17;27.80;;;;;;;;;;5072872;28;20128;-78
2021/12/25 00:41:33;;;;;;;50.95;29.70;;;;;;;;;;5072884;28;20720;-78
2021/12/25 00:43:59;;;;;;;44.38;24.95;;;;;;;;;;5072531;28;20048;-79
2021/12/25 00:46:25;;;;;;;88.53;47.85;;;;;;;;;;5071258;28;20035;-78
2021/12/25 00:48:51;;;;;;;74.05;44.70;;;;;;;;;;5070958;28;20032;-79
2021/12/25 00:51:18;;;;;;;73.25;45.50;;;;;;;;;;5072269;28;20115;-79
2021/12/25 00:53:44;;;;;;;52.45;32.35;;;;;;;;;;5073509;28;20044;-79
2021/12/25 00:56:10;;;;;;;71.88;45.10;;;;;;;;;;5073553;28;20029;-78
2021/12/25 00:58:36;;;;;;;56.95;34.70;;;;;;;;;;5073820;28;20029;-79
2021/12/25 01:01:03;;;;;;;57.00;33.70;;;;;;;;;;5073595;28;20025;-79
2021/12/25 01:03:29;;;;;;;44.60;27.55;;;;;;;;;;5074285;28;20056;-80
2021/12/25 01:05:55;;;;;;;46.17;29.40;;;;;;;;;;5073302;28;20063;-79
2021/12/25 01:08:21;;;;;;;42.75;27.45;;;;;;;;;;5073930;28;20029;-79
2021/12/25 01:10:47;;;;;;;38.75;23.23;;;;;;;;;;5072937;28;20031;-79
2021/12/25 01:13:21;;;;;;;37.22;23.98;;;;;;;;;;5073436;28;20390;-79
2021/12/25 01:21:09;;;;;;;60.45;42.00;;;;;;;;;;5072769;28;20040;-78
2021/12/25 01:26:15;;;;;;;57.88;37.55;;;;;;;;;;5073213;28;20134;-78
2021/12/25 01:31:32;;;;;;;45.38;28.25;;;;;;;;;;5067968;28;20032;-78
2021/12/25 01:37:00;;;;;;;50.53;28.08;;;;;;;;;;5059354;28;20051;-79
2021/12/25 01:39:46;;;;;;;29.15;17.60;;;;;;;;;;5052155;28;20079;-78
2021/12/25 01:47:48;;;;;;;24.42;15.32;;;;;;;;;;5063501;28;20789;-79
2021/12/25 01:50:14;;;;;;;27.30;18.20;;;;;;;;;;5053141;28;20025;-79
2021/12/25 01:52:40;;;;;;;32.28;19.90;;;;;;;;;;5052254;28;20021;-79
2021/12/25 01:55:09;;;;;;;35.80;24.10;;;;;;;;;;5052467;28;20044;-79
2021/12/25 01:57:35;;;;;;;39.92;22.30;;;;;;;;;;5055270;28;20383;-78
2021/12/25 02:00:01;;;;;;;34.03;21.35;;;;;;;;;;5071452;28;20044;-79
2021/12/25 02:02:27;;;;;;;44.90;27.33;;;;;;;;;;5071552;28;20024;-79
2021/12/25 02:04:53;;;;;;;72.25;32.67;;;;;;;;;;5071987;28;20052;-79
2021/12/25 02:07:20;;;;;;;79.10;38.00;;;;;;;;;;5072422;28;20040;-78
2021/12/25 02:09:46;;;;;;;63.42;28.10;;;;;;;;;;5072415;28;20040;-79
2021/12/25 02:12:14;;;;;;;80.47;32.42;;;;;;;;;;5072216;28;20093;-79
2021/12/25 02:14:43;;;;;;;102.18;47.15;;;;;;;;;;5066673;28;20484;-79
2021/12/25 02:19:54;;;;;;;90.03;41.45;;;;;;;;;;5052629;28;20053;-79
2021/12/25 02:22:26;;;;;;;68.57;30.45;;;;;;;;;;5051763;28;20029;-79
2021/12/25 02:24:52;;;;;;;59.73;29.63;;;;;;;;;;5055641;28;20672;-79
2021/12/25 02:27:18;;;;;;;54.10;27.42;;;;;;;;;;5071985;28;20356;-78
2021/12/25 02:29:44;;;;;;;47.88;24.02;;;;;;;;;;5072394;28;20032;-79
2021/12/25 02:32:10;;;;;;;56.65;24.92;;;;;;;;;;5071614;28;20036;-79
2021/12/25 02:34:36;;;;;;;62.42;28.50;;;;;;;;;;5071775;28;20050;-79
2021/12/25 02:37:03;;;;;;;57.38;28.77;;;;;;;;;;5069583;28;20743;-79
2021/12/25 02:39:29;;;;;;;65.50;40.95;;;;;;;;;;5071495;28;20115;-80
2021/12/25 02:41:55;;;;;;;63.80;34.20;;;;;;;;;;5070639;28;20107;-79
2021/12/25 02:44:21;;;;;;;56.33;34.13;;;;;;;;;;5071599;28;20576;-79
2021/12/25 02:46:48;;;;;;;101.78;45.10;;;;;;;;;;5070127;28;20074;-78
2021/12/25 02:49:14;;;;;;;82.40;36.22;;;;;;;;;;5050983;28;20029;-78
2021/12/25 02:51:44;;;;;;;61.97;27.38;;;;;;;;;;5052670;28;20025;-78
2021/12/25 02:54:11;;;;;;;43.47;23.58;;;;;;;;;;5070410;28;20589;-78
2021/12/25 02:56:38;;;;;;;66.57;32.28;;;;;;;;;;5071418;28;20028;-79
2021/12/25 02:59:04;;;;;;;49.40;24.67;;;;;;;;;;5070879;28;20040;-79
2021/12/25 03:01:30;;;;;;;54.33;29.45;;;;;;;;;;5070761;28;20467;-78
2021/12/25 03:03:56;;;;;;;54.13;29.90;;;;;;;;;;5070635;28;20041;-78
2021/12/25 03:06:25;;;;;;;54.00;27.48;;;;;;;;;;5071182;28;20241;-78
2021/12/25 03:08:51;;;;;;;50.45;27.10;;;;;;;;;;5072034;28;20024;-78
2021/12/25 03:11:17;;;;;;;63.75;33.85;;;;;;;;;;5074528;28;20028;-78
2021/12/25 03:13:59;;;;;;;45.42;24.65;;;;;;;;;;5075262;28;20028;-79
2021/12/25 03:16:26;;;;;;;44.83;28.40;;;;;;;;;;5075284;28;20490;-79
2021/12/25 03:18:54;;;;;;;30.25;18.85;;;;;;;;;;5074476;28;20079;-79
2021/12/25 03:21:20;;;;;;;43.30;26.00;;;;;;;;;;5074571;28;20402;-79
2021/12/25 03:23:50;;;;;;;41.67;25.70;;;;;;;;;;5074569;28;20060;-78
2021/12/25 03:26:16;;;;;;;47.30;29.83;;;;;;;;;;5074423;28;20028;-78
2021/12/25 03:28:44;;;;;;;44.90;26.98;;;;;;;;;;5074247;28;20025;-78
2021/12/25 03:31:18;;;;;;;42.95;24.67;;;;;;;;;;5074694;28;20460;-78
2021/12/25 03:33:46;;;;;;;33.85;21.05;;;;;;;;;;5064430;28;20029;-78
2021/12/25 03:36:12;;;;;;;46.70;26.77;;;;;;;;;;5054674;28;20036;-78
2021/12/25 03:38:38;;;;;;;32.20;21.23;;;;;;;;;;5054558;28;20068;-78
2021/12/25 03:41:06;;;;;;;35.22;20.60;;;;;;;;;;5054660;28;20071;-78
2021/12/25 03:43:33;;;;;;;42.00;26.02;;;;;;;;;;5054318;28;20529;-78
2021/12/25 03:45:59;;;;;;;34.67;21.95;;;;;;;;;;5071396;28;20056;-78
2021/12/25 03:59:07;;;;;;;26.98;15.82;;;;;;;;;;5074482;28;20055;-78
2021/12/25 04:06:30;;;;;;;26.90;15.43;;;;;;;;;;5073357;28;20036;-79
2021/12/25 04:08:57;;;;;;;20.00;11.77;;;;;;;;;;5072975;28;20478;-78
2021/12/25 04:11:29;;;;;;;25.73;16.20;;;;;;;;;;5063909;28;20087;-79
2021/12/25 04:13:56;;;;;;;23.38;15.45;;;;;;;;;;5074719;28;20033;-78
2021/12/25 04:16:22;;;;;;;19.35;12.20;;;;;;;;;;5059425;28;20057;-78
2021/12/25 04:18:48;;;;;;;19.88;12.20;;;;;;;;;;5074018;28;20387;-78
2021/12/25 04:21:14;;;;;;;18.92;12.35;;;;;;;;;;5072505;28;20064;-78
2021/12/25 04:23:42;;;;;;;21.92;13.52;;;;;;;;;;5074453;28;20176;-78
2021/12/25 04:26:09;;;;;;;25.98;19.77;;;;;;;;;;5065488;28;20040;-78
2021/12/25 04:31:22;;;;;;;21.60;14.70;;;;;;;;;;5058899;28;20036;-79
2021/12/25 04:47:56;;;;;;;19.00;10.32;;;;;;;;;;5052990;28;20076;-78
2021/12/25 05:04:31;;;;;;;14.05;8.80;;;;;;;;;;5045422;28;20042;-78
2021/12/25 05:06:58;;;;;;;14.25;9.13;;;;;;;;;;5050418;28;20115;-78
2021/12/25 05:09:24;;;;;;;13.30;7.93;;;;;;;;;;5061475;28;20459;-78
2021/12/25 05:11:50;;;;;;;14.02;7.38;;;;;;;;;;5071965;28;20041;-78
2021/12/25 05:14:16;;;;;;;10.30;6.20;;;;;;;;;;5073216;28;20043;-78
2021/12/25 05:16:42;;;;;;;11.27;6.60;;;;;;;;;;5053253;28;20036;-79
2021/12/25 05:19:08;;;;;;;27.80;16.40;;;;;;;;;;5057854;28;20115;-78
2021/12/25 05:21:34;;;;;;;15.02;8.02;;;;;;;;;;5072246;28;20039;-79
2021/12/25 05:24:00;;;;;;;12.20;6.50;;;;;;;;;;5072180;28;20043;-78
2021/12/25 05:26:27;;;;;;;12.20;7.25;;;;;;;;;;5058699;28;20541;-78
2021/12/25 05:28:59;;;;;;;11.38;6.57;;;;;;;;;;5063771;28;20028;-78
2021/12/25 05:31:26;;;;;;;11.45;6.97;;;;;;;;;;5062968;23;20049;-79
2021/12/25 05:33:53;;;;;;;14.00;8.38;;;;;;;;;;4992741;28;20045;-78
2021/12/25 05:36:19;;;;;;;10.77;6.80;;;;;;;;;;4992739;28;20034;-78
2021/12/25 05:38:45;;;;;;;14.23;8.80;;;;;;;;;;4977952;28;20041;-78
2021/12/25 05:41:12;;;;;;;10.75;6.90;;;;;;;;;;4974473;28;20038;-79
2021/12/25 05:43:38;;;;;;;11.05;7.13;;;;;;;;;;4985684;28;20485;-79
2021/12/25 05:46:04;;;;;;;11.45;7.50;;;;;;;;;;4993193;28;20485;-79
2021/12/25 05:48:35;;;;;;;13.52;8.95;;;;;;;;;;4992900;28;20027;-79
2021/12/25 05:51:02;;;;;;;13.30;8.38;;;;;;;;;;4993169;28;20385;-79
2021/12/25 05:53:28;;;;;;;27.27;17.85;;;;;;;;;;4992332;28;20385;-79
2021/12/25 05:55:54;;;;;;;24.40;16.13;;;;;;;;;;4981336;28;20043;-78
2021/12/25 05:58:20;;;;;;;24.52;15.80;;;;;;;;;;4986758;28;20038;-78
2021/12/25 06:00:46;;;;;;;26.00;16.30;;;;;;;;;;4991679;28;20044;-78
2021/12/25 06:03:12;;;;;;;27.98;17.38;;;;;;;;;;4974748;28;20673;-79
2021/12/25 06:05:38;;;;;;;24.38;15.95;;;;;;;;;;4990782;28;20737;-78
2021/12/25 06:08:05;;;;;;;19.42;12.48;;;;;;;;;;4991400;28;20046;-77
2021/12/25 06:10:31;;;;;;;12.98;7.70;;;;;;;;;;4991296;28;20026;-78
2021/12/25 06:12:59;;;;;;;18.17;8.82;;;;;;;;;;4984280;28;20038;-78
2021/12/25 06:15:26;;;;;;;13.55;8.40;;;;;;;;;;4988466;28;20549;-78
2021/12/25 06:17:52;;;;;;;11.00;6.97;;;;;;;;;;4992385;28;20825;-78
2021/12/25 06:20:18;;;;;;;19.98;12.23;;;;;;;;;;4986404;28;20053;-78
2021/12/25 06:22:44;;;;;;;22.70;13.20;;;;;;;;;;4992582;28;20050;-78
2021/12/25 06:25:10;;;;;;;15.05;9.18;;;;;;;;;;4991822;28;20037;-79
2021/12/25 06:27:37;;;;;;;13.02;6.78;;;;;;;;;;4981755;28;20035;-79
2021/12/25 06:30:04;;;;;;;10.68;5.72;;;;;;;;;;4976189;28;20029;-78
2021/12/25 06:32:30;;;;;;;13.13;6.25;;;;;;;;;;4990474;28;20082;-78
2021/12/25 06:34:56;;;;;;;16.27;9.75;;;;;;;;;;4989878;28;20030;-80
2021/12/25 06:37:24;;;;;;;11.73;7.95;;;;;;;;;;4991329;28;20045;-79
2021/12/25 06:39:50;;;;;;;13.57;7.65;;;;;;;;;;4992493;28;20053;-80
2021/12/25 06:42:16;;;;;;;11.65;7.18;;;;;;;;;;4990381;28;20465;-80
2021/12/25 06:44:42;;;;;;;18.67;9.98;;;;;;;;;;4984868;28;20035;-80
2021/12/25 06:47:08;;;;;;;20.05;11.00;;;;;;;;;;4977526;28;20128;-78
2021/12/25 06:49:34;;;;;;;12.23;7.85;;;;;;;;;;4993264;28;20061;-79
2021/12/25 06:52:00;;;;;;;10.38;6.93;;;;;;;;;;5004958;28;20081;-77
2021/12/25 06:54:26;;;;;;;13.98;7.78;;;;;;;;;;5003026;28;20477;-79
2021/12/25 06:56:53;;;;;;;16.25;9.07;;;;;;;;;;4995052;28;20065;-78
2021/12/25 06:59:21;;;;;;;11.75;6.68;;;;;;;;;;4993207;28;20030;-78
2021/12/25 07:01:47;;;;;;;10.57;6.20;;;;;;;;;;4998418;28;20461;-78
2021/12/25 07:04:13;;;;;;;10.82;6.65;;;;;;;;;;4994975;28;20101;-78
2021/12/25 07:06:40;;;;;;;11.02;4.95;;;;;;;;;;4995229;28;20065;-79
2021/12/25 07:09:06;;;;;;;8.88;4.47;;;;;;;;;;4989931;28;20730;-80
2021/12/25 07:11:33;;;;;;;10.30;5.70;;;;;;;;;;4985803;28;20364;-78
2021/12/25 07:14:02;;;;;;;16.55;9.05;;;;;;;;;;4991326;28;20084;-77
2021/12/25 07:16:28;;;;;;;16.58;8.20;;;;;;;;;;4998084;28;20038;-78
2021/12/25 07:18:54;;;;;;;10.23;5.85;;;;;;;;;;4995694;28;20041;-78
2021/12/25 07:21:20;;;;;;;9.95;5.22;;;;;;;;;;4995599;28;20048;-78
2021/12/25 07:23:46;;;;;;;7.50;4.78;;;;;;;;;;4994927;28;20097;-78
2021/12/25 07:26:12;;;;;;;21.58;12.23;;;;;;;;;;4989617;28;20038;-78
2021/12/25 07:28:38;;;;;;;25.27;13.43;;;;;;;;;;4986558;28;20358;-78
2021/12/25 07:31:05;;;;;;;19.70;10.88;;;;;;;;;;4993506;28;20046;-78
2021/12/25 07:33:32;;;;;;;20.27;11.93;;;;;;;;;;4993535;28;20030;-78
2021/12/25 07:35:58;;;;;;;16.45;8.23;;;;;;;;;;4991164;28;20076;-77
2021/12/25 07:38:26;;;;;;;14.77;8.90;;;;;;;;;;4974093;28;20111;-77
2021/12/25 07:40:52;;;;;;;13.85;8.35;;;;;;;;;;4987657;28;20173;-77
2021/12/25 07:43:18;;;;;;;16.30;9.60;;;;;;;;;;4992649;28;20481;-77
2021/12/25 07:45:47;;;;;;;20.60;13.93;;;;;;;;;;4993741;28;20069;-77
2021/12/25 07:48:13;;;;;;;25.75;16.88;;;;;;;;;;4989291;28;20032;-77
2021/12/25 07:50:40;;;;;;;30.15;21.38;;;;;;;;;;4994175;28;20026;-77
2021/12/25 07:53:06;;;;;;;20.65;14.60;;;;;;;;;;4993552;28;20023;-76
2021/12/25 07:55:32;;;;;;;21.17;12.05;;;;;;;;;;4993765;28;20536;-77
2021/12/25 07:57:59;;;;;;;14.35;9.30;;;;;;;;;;4993255;28;20149;-77
2021/12/25 08:00:25;;;;;;;16.02;9.23;;;;;;;;;;4988215;28;20043;-76
2021/12/25 08:02:51;;;;;;;14.55;8.80;;;;;;;;;;4980421;28;20089;-77
2021/12/25 08:05:18;;;;;;;15.63;10.45;;;;;;;;;;4987659;28;20140;-77
2021/12/25 08:07:44;;;;;;;15.05;9.85;;;;;;;;;;4993140;28;20049;-77
2021/12/25 08:10:13;;;;;;;13.93;8.27;;;;;;;;;;4992811;28;20101;-77
2021/12/25 08:12:41;;;;;;;11.35;7.10;;;;;;;;;;4984862;28;20031;-77
2021/12/25 08:15:08;;;;;;;13.65;8.43;;;;;;;;;;4986387;28;20425;-77
2021/12/25 08:17:34;;;;;;;15.30;8.05;;;;;;;;;;4982763;28;20114;-77
2021/12/25 08:20:00;;;;;;;12.95;8.02;;;;;;;;;;4987736;28;20041;-76
2021/12/25 08:22:26;;;;;;;17.15;10.60;;;;;;;;;;4992600;28;20034;-76
2021/12/25 08:24:52;;;;;;;12.75;7.57;;;;;;;;;;4972007;28;20038;-76
2021/12/25 08:27:19;;;;;;;14.05;8.40;;;;;;;;;;4983634;28;20473;-77
2021/12/25 08:29:45;;;;;;;13.77;7.65;;;;;;;;;;4989381;28;20041;-77
2021/12/25 08:32:11;;;;;;;11.88;7.97;;;;;;;;;;4967719;28;20051;-78
2021/12/25 08:34:38;;;;;;;18.95;10.60;;;;;;;;;;4945552;28;20851;-77
2021/12/25 08:37:04;;;;;;;24.45;14.90;;;;;;;;;;4952216;28;20035;-78
2021/12/25 08:39:30;;;;;;;20.92;12.85;;;;;;;;;;4962162;28;20038;-77
2021/12/25 08:42:01;;;;;;;14.57;8.73;;;;;;;;;;4952730;28;20043;-77
2021/12/25 08:44:35;;;;;;;14.38;9.27;;;;;;;;;;4948895;28;20037;-78
2021/12/25 08:47:04;;;;;;;12.82;7.60;;;;;;;;;;4943130;28;20083;-79
2021/12/25 08:49:30;;;;;;;19.48;9.55;;;;;;;;;;4951953;28;20051;-78
2021/12/25 08:52:01;;;;;;;16.27;8.20;;;;;;;;;;4963429;28;20514;-79
2021/12/25 08:54:27;;;;;;;14.52;8.95;;;;;;;;;;4946021;28;20125;-78
2021/12/25 08:56:53;;;;;;;13.52;8.75;;;;;;;;;;4948140;28;20082;-77
2021/12/25 08:59:20;;;;;;;14.05;8.85;;;;;;;;;;4972693;28;20023;-77
2021/12/25 09:01:47;;;;;;;12.48;8.60;;;;;;;;;;4950025;28;20043;-77
2021/12/25 09:04:13;;;;;;;19.33;12.70;;;;;;;;;;4947867;28;20027;-77
2021/12/25 09:06:39;;;;;;;25.05;16.30;;;;;;;;;;4937057;29;20036;-77
2021/12/25 09:09:08;;;;;;;25.42;16.25;;;;;;;;;;4952510;28;20062;-78
2021/12/25 09:11:35;;;;;;;34.47;24.75;;;;;;;;;;4952840;28;20123;-78
2021/12/25 09:14:02;;;;;;;34.97;24.38;;;;;;;;;;4945872;28;20038;-78
2021/12/25 09:16:28;;;;;;;38.25;25.88;;;;;;;;;;4952737;28;20398;-77
2021/12/25 09:18:54;;;;;;;35.55;25.98;;;;;;;;;;4952231;28;20035;-78
2021/12/25 09:21:20;;;;;;;30.50;20.42;;;;;;;;;;4952521;28;20039;-77
2021/12/25 09:23:46;;;;;;;25.52;18.15;;;;;;;;;;4944855;28;20961;-77
2021/12/25 09:26:12;;;;;;;27.02;17.33;;;;;;;;;;4956703;28;20039;-77
2021/12/25 09:28:38;;;;;;;28.70;19.88;;;;;;;;;;4952170;28;20023;-78
2021/12/25 09:31:04;;;;;;;19.55;15.05;;;;;;;;;;4945643;28;20247;-78
2021/12/25 09:33:30;;;;;;;22.80;13.90;;;;;;;;;;4989936;28;20034;-78
2021/12/25 09:35:57;;;;;;;21.83;13.85;;;;;;;;;;4988610;28;20497;-77
2021/12/25 09:38:23;;;;;;;22.30;13.75;;;;;;;;;;4984912;28;20097;-77
2021/12/25 09:40:49;;;;;;;20.52;14.13;;;;;;;;;;4979047;28;20436;-77
2021/12/25 09:43:18;;;;;;;23.67;16.48;;;;;;;;;;4976799;28;20026;-78
2021/12/25 09:45:44;;;;;;;24.40;15.60;;;;;;;;;;4969975;28;20042;-78
2021/12/25 09:48:10;;;;;;;23.45;17.23;;;;;;;;;;4971557;28;20026;-78
2021/12/25 09:50:36;;;;;;;19.83;14.10;;;;;;;;;;4969993;28;20034;-78
2021/12/25 09:53:07;;;;;;;21.42;16.27;;;;;;;;;;4969870;28;20106;-78
2021/12/25 09:55:33;;;;;;;22.60;17.13;;;;;;;;;;4969816;28;20026;-78
2021/12/25 09:57:59;;;;;;;25.85;18.27;;;;;;;;;;4969569;28;20633;-77
2021/12/25 10:00:27;;;;;;;24.23;16.95;;;;;;;;;;4972160;28;20045;-78
2021/12/25 10:02:54;;;;;;;22.95;15.68;;;;;;;;;;4970859;28;20037;-77
2021/12/25 10:05:35;;;;;;;21.65;15.05;;;;;;;;;;4971509;28;20093;-77
2021/12/25 10:08:02;;;;;;;23.13;15.55;;;;;;;;;;4969566;28;20034;-78
2021/12/25 10:10:36;;;;;;;24.02;16.35;;;;;;;;;;4970332;28;20066;-77
2021/12/25 10:13:02;;;;;;;23.65;16.63;;;;;;;;;;4970428;28;20078;-78
2021/12/25 10:15:28;;;;;;;27.30;19.00;;;;;;;;;;4967159;28;20847;-77
2021/12/25 10:17:56;;;;;;;20.88;15.23;;;;;;;;;;4970802;28;20041;-78
2021/12/25 10:20:23;;;;;;;21.45;15.15;;;;;;;;;;4969236;28;20141;-79
2021/12/25 10:22:57;;;;;;;22.35;15.40;;;;;;;;;;4970645;28;20062;-79
2021/12/25 10:25:24;;;;;;;21.60;14.45;;;;;;;;;;4970125;28;20466;-78
2021/12/25 10:27:54;;;;;;;22.92;16.92;;;;;;;;;;4969732;28;20062;-77
2021/12/25 10:30:21;;;;;;;23.33;15.85;;;;;;;;;;4970574;28;20023;-77
2021/12/25 10:32:48;;;;;;;23.70;16.27;;;;;;;;;;4976542;28;20047;-77
2021/12/25 10:35:18;;;;;;;23.95;17.42;;;;;;;;;;4970732;28;20077;-77
2021/12/25 10:37:45;;;;;;;27.13;18.42;;;;;;;;;;4971379;28;20035;-78
2021/12/25 10:40:27;;;;;;;25.70;18.88;;;;;;;;;;4964409;28;20031;-78
2021/12/25 10:42:54;;;;;;;25.17;19.02;;;;;;;;;;4969890;28;20037;-78
2021/12/25 10:45:20;;;;;;;29.15;19.65;;;;;;;;;;4970832;28;20041;-78
2021/12/25 10:47:58;;;;;;;29.88;20.80;;;;;;;;;;4971096;28;20042;-78
2021/12/25 10:50:25;;;;;;;28.27;18.58;;;;;;;;;;4970158;28;20062;-78
2021/12/25 10:52:51;;;;;;;31.85;21.23;;;;;;;;;;4970345;28;20142;-78
2021/12/25 10:55:19;;;;;;;36.08;24.73;;;;;;;;;;4968842;28;20045;-78
2021/12/25 10:57:50;;;;;;;31.30;22.95;;;;;;;;;;4968630;28;20042;-78
2021/12/25 11:00:27;;;;;;;31.25;21.58;;;;;;;;;;4970696;28;20035;-77
2021/12/25 11:02:53;;;;;;;32.60;22.60;;;;;;;;;;4969853;28;20042;-77
2021/12/25 11:05:24;;;;;;;29.23;21.05;;;;;;;;;;4967222;28;20086;-78
2021/12/25 11:08:08;;;;;;;37.38;24.27;;;;;;;;;;4969879;28;20105;-78
2021/12/25 11:10:47;;;;;;;29.80;20.38;;;;;;;;;;4970580;28;20291;-78
2021/12/25 11:13:21;;;;;;;27.85;19.98;;;;;;;;;;4959497;28;20037;-77
2021/12/25 11:15:47;;;;;;;28.02;17.23;;;;;;;;;;4970335;28;20061;-77
2021/12/25 11:18:15;;;;;;;31.58;22.20;;;;;;;;;;4970055;28;20051;-78
2021/12/25 11:20:42;;;;;;;30.60;22.15;;;;;;;;;;4970059;28;20062;-78
2021/12/25 11:23:10;;;;;;;28.30;20.80;;;;;;;;;;4970297;28;20035;-78
2021/12/25 11:25:38;;;;;;;44.17;26.35;;;;;;;;;;4969508;28;20031;-77
2021/12/25 11:28:07;;;;;;;54.42;33.33;;;;;;;;;;4970050;28;20587;-77
2021/12/25 11:30:35;;;;;;;41.83;26.60;;;;;;;;;;4971405;28;20033;-77
2021/12/25 11:33:01;;;;;;;37.42;26.23;;;;;;;;;;4972847;28;20053;-78
2021/12/25 11:35:28;;;;;;;33.40;24.15;;;;;;;;;;4973627;28;20122;-78
2021/12/25 11:37:55;;;;;;;37.40;25.73;;;;;;;;;;4972887;28;20058;-77
2021/12/25 11:40:23;;;;;;;39.65;26.92;;;;;;;;;;4974101;28;20034;-78
2021/12/25 11:42:53;;;;;;;39.92;25.13;;;;;;;;;;4973324;28;20058;-77
2021/12/25 11:45:25;;;;;;;37.15;24.35;;;;;;;;;;4973495;28;20533;-78
2021/12/25 11:47:52;;;;;;;38.17;25.75;;;;;;;;;;4972399;28;20375;-77
2021/12/25 11:50:23;;;;;;;36.42;25.42;;;;;;;;;;4973701;28;20030;-77
2021/12/25 11:53:04;;;;;;;33.78;24.23;;;;;;;;;;4972566;28;20174;-78
2021/12/25 11:55:51;;;;;;;53.33;32.22;;;;;;;;;;4972372;28;21094;-78
2021/12/25 11:58:39;;;;;;;48.28;26.33;;;;;;;;;;4969235;28;20122;-78
2021/12/25 12:01:24;;;;;;;27.45;14.85;;;;;;;;;;4967710;28;20039;-77
2021/12/25 12:03:54;;;;;;;15.52;7.72;;;;;;;;;;4971558;28;20049;-77
2021/12/25 12:06:20;;;;;;;14.30;7.82;;;;;;;;;;4973115;28;20043;-77
2021/12/25 12:08:52;;;;;;;18.65;10.15;;;;;;;;;;4972171;28;20482;-77
2021/12/25 12:11:23;;;;;;;25.70;13.80;;;;;;;;;;4954135;28;20054;-77
2021/12/25 12:14:08;;;;;;;22.17;14.57;;;;;;;;;;4968560;28;20038;-77
2021/12/25 12:16:39;;;;;;;22.80;14.52;;;;;;;;;;4962630;28;20053;-77
2021/12/25 12:19:05;;;;;;;14.48;5.57;;;;;;;;;;4943960;28;20039;-77
2021/12/25 12:21:36;;;;;;;12.20;4.32;;;;;;;;;;4972401;28;20086;-77
2021/12/25 12:24:43;;;;;;;10.60;4.75;;;;;;;;;;4972822;28;20031;-77
2021/12/25 12:27:09;;;;;;;6.95;2.67;;;;;;;;;;4972671;28;20058;-77
2021/12/25 12:29:41;;;;;;;12.57;4.25;;;;;;;;;;4971300;28;20027;-77
2021/12/25 12:32:27;;;;;;;16.15;8.55;;;;;;;;;;4972054;28;20054;-77
2021/12/25 12:34:53;;;;;;;23.02;14.55;;;;;;;;;;4972282;28;20094;-77
2021/12/25 12:37:19;;;;;;;23.75;15.00;;;;;;;;;;4970411;28;20042;-77
2021/12/25 12:40:05;;;;;;;28.85;18.98;;;;;;;;;;4972317;28;20035;-77
2021/12/25 12:42:49;;;;;;;27.50;18.98;;;;;;;;;;4970773;28;20791;-77
2021/12/25 12:45:14;;;;;;;25.52;16.60;;;;;;;;;;4969810;28;20035;-77
2021/12/25 12:47:41;;;;;;;23.15;14.52;;;;;;;;;;4971452;28;20081;-77
2021/12/25 12:50:08;;;;;;;22.92;14.80;;;;;;;;;;4972095;28;20812;-76
2021/12/25 12:52:37;;;;;;;21.17;12.75;;;;;;;;;;4972215;28;20042;-77
2021/12/25 12:55:05;;;;;;;29.10;19.23;;;;;;;;;;4972028;28;20027;-77
2021/12/25 12:57:31;;;;;;;23.33;15.00;;;;;;;;;;4972024;28;20639;-77
2021/12/25 13:00:02;;;;;;;22.98;15.45;;;;;;;;;;4971588;28;20102;-77
2021/12/25 13:02:30;;;;;;;33.58;17.63;;;;;;;;;;4971829;28;20663;-78
2021/12/25 13:05:01;;;;;;;22.95;15.98;;;;;;;;;;4968968;28;20101;-77
2021/12/25 13:07:29;;;;;;;25.98;18.00;;;;;;;;;;4971299;28;20030;-76
2021/12/25 13:09:57;;;;;;;19.15;12.98;;;;;;;;;;4971710;28;20031;-77
2021/12/25 13:15:05;;;;;;;25.42;15.07;;;;;;;;;;4970771;28;20398;-77
2021/12/25 13:17:31;;;;;;;28.42;14.20;;;;;;;;;;4972389;28;20046;-77
2021/12/25 13:19:57;;;;;;;24.40;14.68;;;;;;;;;;4971156;28;20030;-77
2021/12/25 13:22:23;;;;;;;23.67;13.02;;;;;;;;;;4971177;28;20049;-77
2021/12/25 13:24:55;;;;;;;25.17;12.57;;;;;;;;;;4970806;28;20038;-77
2021/12/25 13:27:21;;;;;;;16.58;10.40;;;;;;;;;;4971970;28;20070;-77
2021/12/25 13:29:47;;;;;;;17.65;9.63;;;;;;;;;;4970884;28;20026;-77
2021/12/25 13:32:13;;;;;;;18.80;10.15;;;;;;;;;;4970535;28;20058;-77
2021/12/25 13:34:39;;;;;;;17.35;9.73;;;;;;;;;;4969972;28;20109;-76
2021/12/25 13:40:09;;;;;;;23.10;13.90;;;;;;;;;;4961637;28;20043;-79
2021/12/25 13:42:35;;;;;;;17.10;9.73;;;;;;;;;;4970620;28;20500;-77
2021/12/25 13:45:01;;;;;;;33.63;19.05;;;;;;;;;;4968576;28;20030;-77
2021/12/25 13:47:28;;;;;;;30.08;16.45;;;;;;;;;;4969630;28;20110;-77
2021/12/25 13:49:59;;;;;;;30.58;17.67;;;;;;;;;;4969356;28;20037;-77
2021/12/25 13:52:28;;;;;;;34.10;17.77;;;;;;;;;;4966148;28;20684;-77
2021/12/25 13:55:01;;;;;;;26.17;17.38;;;;;;;;;;4970183;28;20082;-77
2021/12/25 13:57:28;;;;;;;28.80;16.58;;;;;;;;;;4966874;28;20122;-77
2021/12/25 13:59:56;;;;;;;22.25;13.43;;;;;;;;;;4969384;28;20514;-77
2021/12/25 14:02:22;;;;;;;30.80;19.80;;;;;;;;;;4969479;28;20046;-77
2021/12/25 14:04:51;;;;;;;28.63;16.02;;;;;;;;;;4969552;28;20054;-76
2021/12/25 14:07:19;;;;;;;30.00;18.08;;;;;;;;;;4970529;28;20035;-76
2021/12/25 14:09:56;;;;;;;32.90;19.02;;;;;;;;;;4970346;28;20550;-80
2021/12/25 14:12:23;;;;;;;30.27;21.38;;;;;;;;;;4952782;28;20042;-73
2021/12/25 14:14:49;;;;;;;35.17;22.20;;;;;;;;;;4969467;28;20043;-73
2021/12/25 14:17:15;;;;;;;30.10;17.60;;;;;;;;;;4965564;28;20065;-73
2021/12/25 14:19:41;;;;;;;28.88;18.20;;;;;;;;;;4969453;28;20035;-73
2021/12/25 14:22:07;;;;;;;39.60;26.85;;;;;;;;;;4965704;28;20039;-73
2021/12/25 14:24:41;;;;;;;26.38;18.73;;;;;;;;;;4969051;28;20030;-73
2021/12/25 14:27:08;;;;;;;26.05;16.27;;;;;;;;;;4967971;28;20037;-73
2021/12/25 14:29:34;;;;;;;26.60;16.17;;;;;;;;;;4966473;28;20027;-73
2021/12/25 14:32:01;;;;;;;32.40;21.05;;;;;;;;;;4967527;28;20058;-73
2021/12/25 14:34:31;;;;;;;25.98;16.52;;;;;;;;;;4967977;28;20055;-73
2021/12/25 14:36:57;;;;;;;31.98;22.90;;;;;;;;;;4969484;28;20082;-73
2021/12/25 14:39:23;;;;;;;29.60;18.77;;;;;;;;;;4968126;28;20038;-73
2021/12/25 14:41:51;;;;;;;24.38;12.98;;;;;;;;;;4967296;28;20390;-73
2021/12/25 14:44:23;;;;;;;22.40;13.10;;;;;;;;;;4969143;28;20023;-73
2021/12/25 14:47:03;;;;;;;21.45;13.18;;;;;;;;;;4968751;28;20467;-73
2021/12/25 14:49:35;;;;;;;32.15;14.18;;;;;;;;;;4966046;28;20101;-73
2021/12/25 14:52:01;;;;;;;28.98;14.05;;;;;;;;;;4967654;28;20034;-73
2021/12/25 14:54:31;;;;;;;22.70;14.38;;;;;;;;;;4967976;28;20500;-73
2021/12/25 14:56:58;;;;;;;23.75;15.35;;;;;;;;;;4969297;28;20031;-73
2021/12/25 14:59:25;;;;;;;27.85;19.02;;;;;;;;;;4968540;28;20029;-73
2021/12/25 15:01:52;;;;;;;28.25;19.83;;;;;;;;;;4968544;28;20041;-73
2021/12/25 15:04:20;;;;;;;30.60;17.98;;;;;;;;;;4965364;28;20085;-73
2021/12/25 15:06:48;;;;;;;28.17;16.13;;;;;;;;;;4968557;28;20351;-73
2021/12/25 15:09:18;;;;;;;22.20;12.85;;;;;;;;;;4969217;28;20031;-73
2021/12/25 15:11:49;;;;;;;24.83;13.98;;;;;;;;;;4968877;28;20045;-74
2021/12/25 15:14:17;;;;;;;33.67;24.02;;;;;;;;;;4971385;28;20109;-74
2021/12/25 15:16:45;;;;;;;32.53;19.80;;;;;;;;;;4971013;28;20481;-75
2021/12/25 15:19:20;;;;;;;30.55;19.30;;;;;;;;;;4969612;28;20027;-74
2021/12/25 15:21:47;;;;;;;30.77;19.45;;;;;;;;;;4973249;28;20078;-73
2021/12/25 15:24:19;;;;;;;26.77;16.80;;;;;;;;;;4971888;28;20056;-73
2021/12/25 15:26:50;;;;;;;27.20;18.83;;;;;;;;;;4969451;28;20081;-74
2021/12/25 15:29:16;;;;;;;25.25;19.20;;;;;;;;;;4968131;28;20606;-74
2021/12/25 15:31:46;;;;;;;56.78;37.33;;;;;;;;;;4969368;28;20066;-74
2021/12/25 15:34:17;;;;;;;46.88;31.65;;;;;;;;;;4969148;28;20513;-75
2021/12/25 15:36:45;;;;;;;32.30;21.60;;;;;;;;;;4967340;28;20035;-74
2021/12/25 15:39:14;;;;;;;28.92;18.65;;;;;;;;;;4972247;28;20027;-75
2021/12/25 15:41:42;;;;;;;35.75;22.55;;;;;;;;;;4973099;28;20031;-75